Terminal Aerodrome Forecast
Issued by NWS Wilmington, OH

Current Version | Previous Version | Graphics & Text | Print | Product List | Glossary On
Versions: 1 2 3 4 5 6 7 8 9 10 11 12 13 14 15 16 17 18 19 20 21 22 23 24
573
FTUS41 KILN 050533
TAFDAY
TAF
KDAY 050533Z 0506/0606 31004KT P6SM OVC025
     FM050700 32005KT P6SM OVC012
     FM050900 34005KT P6SM OVC006
     FM051300 36010KT P6SM BKN025
     FM052000 01015G24KT P6SM VCSH BKN045
     FM060100 34008KT P6SM SCT045=

USA.gov is the U.S. government's official web portal to all federal, state and local government web resources and services.